sensor_id;sensor_type;location;lat;lon;timestamp;P1;durP1;ratioP1;P2;durP2;ratioP2
18693;SDS011;9477;51.414;10.362;2022-12-18T00:00:27;18.17;;;9.60;;
18693;SDS011;9477;51.414;10.362;2022-12-18T00:02:30;19.10;;;9.67;;
18693;SDS011;9477;51.414;10.362;2022-12-18T00:04:37;21.13;;;8.80;;
18693;SDS011;9477;51.414;10.362;2022-12-18T00:06:40;16.90;;;8.70;;
18693;SDS011;9477;51.414;10.362;2022-12-18T00:08:45;16.07;;;9.50;;
18693;SDS011;9477;51.414;10.362;2022-12-18T00:10:48;17.97;;;9.07;;
18693;SDS011;9477;51.414;10.362;2022-12-18T00:12:51;17.70;;;9.87;;
18693;SDS011;9477;51.414;10.362;2022-12-18T00:14:54;19.57;;;8.90;;
18693;SDS011;9477;51.414;10.362;2022-12-18T00:16:57;17.57;;;9.37;;
18693;SDS011;9477;51.414;10.362;2022-12-18T00:19:02;15.93;;;8.80;;
18693;SDS011;9477;51.414;10.362;2022-12-18T00:21:08;15.27;;;9.50;;
18693;SDS011;9477;51.414;10.362;2022-12-18T00:23:12;16.63;;;9.60;;
18693;SDS011;9477;51.414;10.362;2022-12-18T00:25:15;20.40;;;10.47;;
18693;SDS011;9477;51.414;10.362;2022-12-18T00:27:18;19.23;;;9.77;;
18693;SDS011;9477;51.414;10.362;2022-12-18T00:29:21;21.33;;;10.10;;
18693;SDS011;9477;51.414;10.362;2022-12-18T00:31:24;17.13;;;9.70;;
18693;SDS011;9477;51.414;10.362;2022-12-18T00:33:28;17.43;;;9.63;;
18693;SDS011;9477;51.414;10.362;2022-12-18T00:35:31;18.20;;;10.17;;
18693;SDS011;9477;51.414;10.362;2022-12-18T00:37:35;17.60;;;10.03;;
18693;SDS011;9477;51.414;10.362;2022-12-18T00:39:38;20.40;;;9.43;;
18693;SDS011;9477;51.414;10.362;2022-12-18T00:41:41;19.33;;;10.10;;
18693;SDS011;9477;51.414;10.362;2022-12-18T00:44:02;17.03;;;9.37;;
18693;SDS011;9477;51.414;10.362;2022-12-18T00:46:06;17.67;;;9.93;;
18693;SDS011;9477;51.414;10.362;2022-12-18T00:48:09;18.97;;;10.23;;
18693;SDS011;9477;51.414;10.362;2022-12-18T00:50:12;20.67;;;9.77;;
18693;SDS011;9477;51.414;10.362;2022-12-18T00:52:15;18.40;;;10.20;;
18693;SDS011;9477;51.414;10.362;2022-12-18T00:54:20;14.87;;;9.47;;
18693;SDS011;9477;51.414;10.362;2022-12-18T00:56:23;21.37;;;11.00;;
18693;SDS011;9477;51.414;10.362;2022-12-18T00:58:28;19.10;;;10.40;;
18693;SDS011;9477;51.414;10.362;2022-12-18T01:00:31;20.03;;;9.90;;
18693;SDS011;9477;51.414;10.362;2022-12-18T01:02:34;20.47;;;10.30;;
18693;SDS011;9477;51.414;10.362;2022-12-18T01:04:38;24.33;;;9.63;;
18693;SDS011;9477;51.414;10.362;2022-12-18T01:06:40;19.60;;;9.77;;
18693;SDS011;9477;51.414;10.362;2022-12-18T01:08:44;17.97;;;10.00;;
18693;SDS011;9477;51.414;10.362;2022-12-18T01:10:49;17.33;;;10.23;;
18693;SDS011;9477;51.414;10.362;2022-12-18T01:12:52;18.50;;;10.40;;
18693;SDS011;9477;51.414;10.362;2022-12-18T01:14:55;24.07;;;10.70;;
18693;SDS011;9477;51.414;10.362;2022-12-18T01:16:58;21.67;;;10.53;;
18693;SDS011;9477;51.414;10.362;2022-12-18T01:19:03;21.20;;;10.77;;
18693;SDS011;9477;51.414;10.362;2022-12-18T01:21:07;22.20;;;11.77;;
18693;SDS011;9477;51.414;10.362;2022-12-18T01:23:11;19.27;;;10.37;;
18693;SDS011;9477;51.414;10.362;2022-12-18T01:25:15;23.30;;;10.63;;
18693;SDS011;9477;51.414;10.362;2022-12-18T01:27:19;19.20;;;10.50;;
18693;SDS011;9477;51.414;10.362;2022-12-18T01:29:22;22.97;;;10.93;;
18693;SDS011;9477;51.414;10.362;2022-12-18T01:31:26;19.63;;;9.50;;
18693;SDS011;9477;51.414;10.362;2022-12-18T01:33:31;25.93;;;11.10;;
18693;SDS011;9477;51.414;10.362;2022-12-18T01:35:39;22.83;;;10.87;;
18693;SDS011;9477;51.414;10.362;2022-12-18T01:37:43;18.43;;;9.87;;
18693;SDS011;9477;51.414;10.362;2022-12-18T01:39:45;24.97;;;12.67;;
18693;SDS011;9477;51.414;10.362;2022-12-18T01:41:49;23.03;;;11.63;;
18693;SDS011;9477;51.414;10.362;2022-12-18T01:46:42;20.63;;;10.40;;
18693;SDS011;9477;51.414;10.362;2022-12-18T01:48:45;18.67;;;9.70;;
18693;SDS011;9477;51.414;10.362;2022-12-18T01:50:50;20.10;;;10.77;;
18693;SDS011;9477;51.414;10.362;2022-12-18T01:52:53;20.77;;;10.03;;
18693;SDS011;9477;51.414;10.362;2022-12-18T01:54:59;19.93;;;10.50;;
18693;SDS011;9477;51.414;10.362;2022-12-18T01:57:02;23.10;;;11.80;;
18693;SDS011;9477;51.414;10.362;2022-12-18T01:59:06;20.13;;;10.63;;
18693;SDS011;9477;51.414;10.362;2022-12-18T02:01:12;21.70;;;12.03;;
18693;SDS011;9477;51.414;10.362;2022-12-18T02:03:17;19.23;;;10.70;;
18693;SDS011;9477;51.414;10.362;2022-12-18T02:05:22;19.37;;;10.50;;
18693;SDS011;9477;51.414;10.362;2022-12-18T02:07:34;18.77;;;11.10;;
18693;SDS011;9477;51.414;10.362;2022-12-18T02:09:45;21.57;;;11.37;;
18693;SDS011;9477;51.414;10.362;2022-12-18T02:11:53;21.80;;;10.10;;
18693;SDS011;9477;51.414;10.362;2022-12-18T02:16:52;17.60;;;10.03;;
18693;SDS011;9477;51.414;10.362;2022-12-18T02:19:04;18.17;;;9.77;;
18693;SDS011;9477;51.414;10.362;2022-12-18T02:21:20;18.80;;;10.20;;
18693;SDS011;9477;51.414;10.362;2022-12-18T02:23:38;18.70;;;10.50;;
18693;SDS011;9477;51.414;10.362;2022-12-18T02:25:56;16.53;;;10.30;;
18693;SDS011;9477;51.414;10.362;2022-12-18T02:28:16;16.63;;;10.03;;
18693;SDS011;9477;51.414;10.362;2022-12-18T02:30:23;19.77;;;11.13;;
18693;SDS011;9477;51.414;10.362;2022-12-18T02:32:26;19.80;;;10.63;;
18693;SDS011;9477;51.414;10.362;2022-12-18T02:34:33;20.77;;;9.97;;
18693;SDS011;9477;51.414;10.362;2022-12-18T02:36:40;19.53;;;10.47;;
18693;SDS011;9477;51.414;10.362;2022-12-18T02:38:45;19.73;;;9.33;;
18693;SDS011;9477;51.414;10.362;2022-12-18T02:40:49;17.50;;;8.53;;
18693;SDS011;9477;51.414;10.362;2022-12-18T02:42:56;12.97;;;8.40;;
18693;SDS011;9477;51.414;10.362;2022-12-18T02:45:05;16.20;;;9.50;;
18693;SDS011;9477;51.414;10.362;2022-12-18T02:47:10;16.63;;;8.80;;
18693;SDS011;9477;51.414;10.362;2022-12-18T02:49:21;18.40;;;8.77;;
18693;SDS011;9477;51.414;10.362;2022-12-18T02:51:31;14.87;;;7.40;;
18693;SDS011;9477;51.414;10.362;2022-12-18T02:53:42;14.33;;;8.13;;
18693;SDS011;9477;51.414;10.362;2022-12-18T02:55:54;13.93;;;7.53;;
18693;SDS011;9477;51.414;10.362;2022-12-18T02:58:04;14.63;;;7.17;;
18693;SDS011;9477;51.414;10.362;2022-12-18T03:00:14;14.37;;;7.43;;
18693;SDS011;9477;51.414;10.362;2022-12-18T03:02:21;17.70;;;7.90;;
18693;SDS011;9477;51.414;10.362;2022-12-18T03:04:30;14.07;;;8.00;;
18693;SDS011;9477;51.414;10.362;2022-12-18T03:06:42;20.73;;;8.43;;
18693;SDS011;9477;51.414;10.362;2022-12-18T03:08:51;15.17;;;7.80;;
18693;SDS011;9477;51.414;10.362;2022-12-18T03:10:59;13.50;;;7.43;;
18693;SDS011;9477;51.414;10.362;2022-12-18T03:13:07;13.23;;;7.70;;
18693;SDS011;9477;51.414;10.362;2022-12-18T03:15:14;14.77;;;7.47;;
18693;SDS011;9477;51.414;10.362;2022-12-18T03:17:20;17.07;;;8.43;;
18693;SDS011;9477;51.414;10.362;2022-12-18T03:19:27;13.90;;;7.87;;
18693;SDS011;9477;51.414;10.362;2022-12-18T03:21:33;16.33;;;7.90;;
18693;SDS011;9477;51.414;10.362;2022-12-18T03:23:42;10.77;;;6.93;;
18693;SDS011;9477;51.414;10.362;2022-12-18T03:25:51;14.80;;;8.20;;
18693;SDS011;9477;51.414;10.362;2022-12-18T03:27:56;13.33;;;7.50;;
18693;SDS011;9477;51.414;10.362;2022-12-18T03:30:05;11.50;;;7.03;;
18693;SDS011;9477;51.414;10.362;2022-12-18T03:32:12;17.73;;;8.50;;
18693;SDS011;9477;51.414;10.362;2022-12-18T03:34:19;16.17;;;7.53;;
18693;SDS011;9477;51.414;10.362;2022-12-18T03:36:26;14.23;;;7.43;;
18693;SDS011;9477;51.414;10.362;2022-12-18T03:38:29;16.10;;;7.27;;
18693;SDS011;9477;51.414;10.362;2022-12-18T03:40:35;14.50;;;8.60;;
18693;SDS011;9477;51.414;10.362;2022-12-18T03:42:46;14.93;;;7.53;;
18693;SDS011;9477;51.414;10.362;2022-12-18T03:44:54;14.30;;;7.53;;
18693;SDS011;9477;51.414;10.362;2022-12-18T03:47:05;15.70;;;7.80;;
18693;SDS011;9477;51.414;10.362;2022-12-18T03:49:12;16.60;;;8.23;;
18693;SDS011;9477;51.414;10.362;2022-12-18T03:51:24;13.93;;;8.03;;
18693;SDS011;9477;51.414;10.362;2022-12-18T03:53:32;13.23;;;7.13;;
18693;SDS011;9477;51.414;10.362;2022-12-18T03:55:43;18.27;;;7.17;;
18693;SDS011;9477;51.414;10.362;2022-12-18T03:57:47;11.83;;;7.00;;
18693;SDS011;9477;51.414;10.362;2022-12-18T03:59:52;12.63;;;7.30;;
18693;SDS011;9477;51.414;10.362;2022-12-18T04:01:58;12.73;;;7.97;;
18693;SDS011;9477;51.414;10.362;2022-12-18T04:04:05;10.93;;;6.90;;
18693;SDS011;9477;51.414;10.362;2022-12-18T04:06:10;15.57;;;7.73;;
18693;SDS011;9477;51.414;10.362;2022-12-18T04:08:15;17.77;;;8.30;;
18693;SDS011;9477;51.414;10.362;2022-12-18T04:10:18;15.47;;;8.20;;
18693;SDS011;9477;51.414;10.362;2022-12-18T04:12:23;14.93;;;7.93;;
18693;SDS011;9477;51.414;10.362;2022-12-18T04:14:27;13.60;;;8.00;;
18693;SDS011;9477;51.414;10.362;2022-12-18T04:16:30;17.57;;;8.77;;
18693;SDS011;9477;51.414;10.362;2022-12-18T04:18:33;18.33;;;9.13;;
18693;SDS011;9477;51.414;10.362;2022-12-18T04:20:37;17.80;;;9.67;;
18693;SDS011;9477;51.414;10.362;2022-12-18T04:22:40;20.53;;;8.77;;
18693;SDS011;9477;51.414;10.362;2022-12-18T04:24:43;18.33;;;9.30;;
18693;SDS011;9477;51.414;10.362;2022-12-18T04:26:47;22.03;;;10.03;;
18693;SDS011;9477;51.414;10.362;2022-12-18T04:28:50;16.93;;;8.80;;
18693;SDS011;9477;51.414;10.362;2022-12-18T04:30:53;21.17;;;9.60;;
18693;SDS011;9477;51.414;10.362;2022-12-18T04:32:56;17.30;;;9.73;;
18693;SDS011;9477;51.414;10.362;2022-12-18T04:34:59;18.30;;;9.83;;
18693;SDS011;9477;51.414;10.362;2022-12-18T04:37:03;17.03;;;10.10;;
18693;SDS011;9477;51.414;10.362;2022-12-18T04:39:06;21.57;;;10.90;;
18693;SDS011;9477;51.414;10.362;2022-12-18T04:41:09;25.10;;;10.53;;
18693;SDS011;9477;51.414;10.362;2022-12-18T04:43:13;22.73;;;10.80;;
18693;SDS011;9477;51.414;10.362;2022-12-18T04:45:16;19.67;;;10.53;;
18693;SDS011;9477;51.414;10.362;2022-12-18T04:47:19;24.97;;;10.53;;
18693;SDS011;9477;51.414;10.362;2022-12-18T04:49:22;21.17;;;10.30;;
18693;SDS011;9477;51.414;10.362;2022-12-18T04:51:25;23.77;;;11.47;;
18693;SDS011;9477;51.414;10.362;2022-12-18T04:53:30;21.83;;;10.30;;
18693;SDS011;9477;51.414;10.362;2022-12-18T04:55:33;25.63;;;11.23;;
18693;SDS011;9477;51.414;10.362;2022-12-18T04:57:36;19.07;;;10.10;;
18693;SDS011;9477;51.414;10.362;2022-12-18T04:59:39;22.20;;;10.57;;
18693;SDS011;9477;51.414;10.362;2022-12-18T05:01:42;22.43;;;11.20;;
18693;SDS011;9477;51.414;10.362;2022-12-18T05:03:47;25.73;;;11.30;;
18693;SDS011;9477;51.414;10.362;2022-12-18T05:05:50;24.13;;;11.80;;
18693;SDS011;9477;51.414;10.362;2022-12-18T05:07:53;20.50;;;10.53;;
18693;SDS011;9477;51.414;10.362;2022-12-18T05:09:58;23.77;;;11.10;;
18693;SDS011;9477;51.414;10.362;2022-12-18T05:12:01;27.83;;;11.83;;
18693;SDS011;9477;51.414;10.362;2022-12-18T05:14:04;21.30;;;10.10;;
18693;SDS011;9477;51.414;10.362;2022-12-18T05:16:07;24.37;;;11.07;;
18693;SDS011;9477;51.414;10.362;2022-12-18T05:18:10;18.97;;;10.40;;
18693;SDS011;9477;51.414;10.362;2022-12-18T05:20:14;22.27;;;11.10;;
18693;SDS011;9477;51.414;10.362;2022-12-18T05:22:17;18.43;;;9.43;;
18693;SDS011;9477;51.414;10.362;2022-12-18T05:24:20;24.73;;;10.87;;
18693;SDS011;9477;51.414;10.362;2022-12-18T05:26:24;23.13;;;11.07;;
18693;SDS011;9477;51.414;10.362;2022-12-18T05:28:28;19.70;;;10.40;;
18693;SDS011;9477;51.414;10.362;2022-12-18T05:30:32;20.33;;;9.93;;
18693;SDS011;9477;51.414;10.362;2022-12-18T05:32:35;21.33;;;9.60;;
18693;SDS011;9477;51.414;10.362;2022-12-18T05:34:38;21.17;;;10.73;;
18693;SDS011;9477;51.414;10.362;2022-12-18T05:36:41;20.33;;;10.10;;
18693;SDS011;9477;51.414;10.362;2022-12-18T05:38:44;18.93;;;9.63;;
18693;SDS011;9477;51.414;10.362;2022-12-18T05:40:47;19.83;;;10.33;;
18693;SDS011;9477;51.414;10.362;2022-12-18T05:42:53;19.57;;;9.40;;
18693;SDS011;9477;51.414;10.362;2022-12-18T05:44:55;15.67;;;9.23;;
18693;SDS011;9477;51.414;10.362;2022-12-18T05:46:58;20.13;;;10.33;;
18693;SDS011;9477;51.414;10.362;2022-12-18T05:49:02;18.23;;;9.37;;
18693;SDS011;9477;51.414;10.362;2022-12-18T05:51:05;16.43;;;8.97;;
18693;SDS011;9477;51.414;10.362;2022-12-18T05:53:11;19.13;;;9.70;;
18693;SDS011;9477;51.414;10.362;2022-12-18T05:55:16;16.63;;;8.50;;
18693;SDS011;9477;51.414;10.362;2022-12-18T05:57:20;19.60;;;10.03;;
18693;SDS011;9477;51.414;10.362;2022-12-18T05:59:24;22.27;;;9.60;;
18693;SDS011;9477;51.414;10.362;2022-12-18T06:01:27;17.73;;;8.87;;
18693;SDS011;9477;51.414;10.362;2022-12-18T06:03:31;14.47;;;8.83;;
18693;SDS011;9477;51.414;10.362;2022-12-18T06:05:34;21.17;;;9.57;;
18693;SDS011;9477;51.414;10.362;2022-12-18T06:07:38;21.23;;;9.60;;
18693;SDS011;9477;51.414;10.362;2022-12-18T06:09:41;16.60;;;9.70;;
18693;SDS011;9477;51.414;10.362;2022-12-18T06:11:44;20.53;;;11.23;;
18693;SDS011;9477;51.414;10.362;2022-12-18T06:13:49;24.53;;;10.87;;
18693;SDS011;9477;51.414;10.362;2022-12-18T06:16:02;20.80;;;10.00;;
18693;SDS011;9477;51.414;10.362;2022-12-18T06:18:06;18.37;;;9.83;;
18693;SDS011;9477;51.414;10.362;2022-12-18T06:20:09;19.60;;;11.00;;
18693;SDS011;9477;51.414;10.362;2022-12-18T06:22:12;27.87;;;12.50;;
18693;SDS011;9477;51.414;10.362;2022-12-18T06:24:18;32.03;;;14.40;;
18693;SDS011;9477;51.414;10.362;2022-12-18T06:26:21;25.37;;;11.40;;
18693;SDS011;9477;51.414;10.362;2022-12-18T06:28:28;28.63;;;12.13;;
18693;SDS011;9477;51.414;10.362;2022-12-18T06:30:31;25.10;;;13.13;;
18693;SDS011;9477;51.414;10.362;2022-12-18T06:32:36;26.80;;;11.70;;
18693;SDS011;9477;51.414;10.362;2022-12-18T06:34:39;22.73;;;11.97;;
18693;SDS011;9477;51.414;10.362;2022-12-18T06:36:42;24.43;;;12.20;;
18693;SDS011;9477;51.414;10.362;2022-12-18T06:38:45;25.33;;;12.33;;
18693;SDS011;9477;51.414;10.362;2022-12-18T06:40:48;24.33;;;11.30;;
18693;SDS011;9477;51.414;10.362;2022-12-18T06:42:51;23.37;;;11.30;;
18693;SDS011;9477;51.414;10.362;2022-12-18T06:44:55;19.87;;;10.90;;
18693;SDS011;9477;51.414;10.362;2022-12-18T06:46:57;22.50;;;10.33;;
18693;SDS011;9477;51.414;10.362;2022-12-18T06:49:02;25.03;;;12.30;;
18693;SDS011;9477;51.414;10.362;2022-12-18T06:51:05;29.47;;;11.27;;
18693;SDS011;9477;51.414;10.362;2022-12-18T06:53:08;23.67;;;11.27;;
18693;SDS011;9477;51.414;10.362;2022-12-18T06:55:11;22.63;;;11.57;;
18693;SDS011;9477;51.414;10.362;2022-12-18T06:57:14;23.13;;;10.43;;
18693;SDS011;9477;51.414;10.362;2022-12-18T06:59:17;24.90;;;11.20;;
18693;SDS011;9477;51.414;10.362;2022-12-18T07:01:20;23.37;;;11.93;;
18693;SDS011;9477;51.414;10.362;2022-12-18T07:03:26;23.60;;;11.97;;
18693;SDS011;9477;51.414;10.362;2022-12-18T07:05:32;24.33;;;12.03;;
18693;SDS011;9477;51.414;10.362;2022-12-18T07:07:35;24.23;;;12.57;;
18693;SDS011;9477;51.414;10.362;2022-12-18T07:09:38;21.47;;;10.63;;
18693;SDS011;9477;51.414;10.362;2022-12-18T07:11:41;23.13;;;11.47;;
18693;SDS011;9477;51.414;10.362;2022-12-18T07:13:44;22.73;;;10.67;;
18693;SDS011;9477;51.414;10.362;2022-12-18T07:15:48;16.87;;;10.03;;
18693;SDS011;9477;51.414;10.362;2022-12-18T07:17:51;20.43;;;10.87;;
18693;SDS011;9477;51.414;10.362;2022-12-18T07:19:54;21.70;;;11.93;;
18693;SDS011;9477;51.414;10.362;2022-12-18T07:21:58;26.70;;;11.77;;
18693;SDS011;9477;51.414;10.362;2022-12-18T07:24:01;21.90;;;11.70;;
18693;SDS011;9477;51.414;10.362;2022-12-18T07:26:05;21.77;;;11.37;;
18693;SDS011;9477;51.414;10.362;2022-12-18T07:28:09;28.80;;;12.23;;
18693;SDS011;9477;51.414;10.362;2022-12-18T07:30:17;27.30;;;14.00;;
18693;SDS011;9477;51.414;10.362;2022-12-18T07:32:20;27.03;;;13.83;;
18693;SDS011;9477;51.414;10.362;2022-12-18T07:34:23;30.67;;;14.03;;
18693;SDS011;9477;51.414;10.362;2022-12-18T07:36:27;28.03;;;13.93;;
18693;SDS011;9477;51.414;10.362;2022-12-18T07:38:31;28.43;;;13.90;;
18693;SDS011;9477;51.414;10.362;2022-12-18T07:40:35;28.30;;;13.60;;
18693;SDS011;9477;51.414;10.362;2022-12-18T07:42:38;25.93;;;12.83;;
18693;SDS011;9477;51.414;10.362;2022-12-18T07:44:41;30.13;;;13.47;;
18693;SDS011;9477;51.414;10.362;2022-12-18T07:46:44;30.50;;;14.43;;
18693;SDS011;9477;51.414;10.362;2022-12-18T07:48:47;30.37;;;14.63;;
18693;SDS011;9477;51.414;10.362;2022-12-18T07:50:50;31.43;;;14.70;;
18693;SDS011;9477;51.414;10.362;2022-12-18T07:52:54;27.77;;;14.30;;
18693;SDS011;9477;51.414;10.362;2022-12-18T07:54:58;28.50;;;14.40;;
18693;SDS011;9477;51.414;10.362;2022-12-18T07:57:01;30.80;;;14.93;;
18693;SDS011;9477;51.414;10.362;2022-12-18T07:59:21;31.43;;;13.87;;
18693;SDS011;9477;51.414;10.362;2022-12-18T08:01:24;32.97;;;14.10;;
18693;SDS011;9477;51.414;10.362;2022-12-18T08:03:28;29.53;;;14.00;;
18693;SDS011;9477;51.414;10.362;2022-12-18T08:05:31;36.60;;;15.40;;
18693;SDS011;9477;51.414;10.362;2022-12-18T08:07:34;28.60;;;13.93;;
18693;SDS011;9477;51.414;10.362;2022-12-18T08:09:38;32.77;;;15.70;;
18693;SDS011;9477;51.414;10.362;2022-12-18T08:11:42;38.03;;;14.80;;
18693;SDS011;9477;51.414;10.362;2022-12-18T08:13:45;40.20;;;17.20;;
18693;SDS011;9477;51.414;10.362;2022-12-18T08:15:55;36.87;;;17.37;;
18693;SDS011;9477;51.414;10.362;2022-12-18T08:17:59;40.23;;;16.87;;
18693;SDS011;9477;51.414;10.362;2022-12-18T08:20:02;34.97;;;17.37;;
18693;SDS011;9477;51.414;10.362;2022-12-18T08:22:07;42.67;;;18.33;;
18693;SDS011;9477;51.414;10.362;2022-12-18T08:24:10;47.33;;;18.33;;
18693;SDS011;9477;51.414;10.362;2022-12-18T08:26:14;45.53;;;19.23;;
18693;SDS011;9477;51.414;10.362;2022-12-18T08:28:19;35.73;;;17.27;;
18693;SDS011;9477;51.414;10.362;2022-12-18T08:30:22;41.60;;;18.93;;
18693;SDS011;9477;51.414;10.362;2022-12-18T08:32:25;39.10;;;18.40;;
18693;SDS011;9477;51.414;10.362;2022-12-18T08:34:30;53.67;;;24.37;;
18693;SDS011;9477;51.414;10.362;2022-12-18T08:36:33;40.93;;;18.90;;
18693;SDS011;9477;51.414;10.362;2022-12-18T08:38:36;37.93;;;17.13;;
18693;SDS011;9477;51.414;10.362;2022-12-18T08:40:39;44.43;;;20.00;;
18693;SDS011;9477;51.414;10.362;2022-12-18T08:42:42;38.97;;;17.67;;
18693;SDS011;9477;51.414;10.362;2022-12-18T08:45:04;41.87;;;17.90;;
18693;SDS011;9477;51.414;10.362;2022-12-18T08:47:08;41.50;;;18.17;;
18693;SDS011;9477;51.414;10.362;2022-12-18T08:49:11;44.13;;;18.90;;
18693;SDS011;9477;51.414;10.362;2022-12-18T08:51:15;40.40;;;18.17;;
18693;SDS011;9477;51.414;10.362;2022-12-18T08:53:18;37.13;;;17.47;;
18693;SDS011;9477;51.414;10.362;2022-12-18T08:55:21;39.10;;;17.17;;
18693;SDS011;9477;51.414;10.362;2022-12-18T08:57:24;34.13;;;17.30;;
18693;SDS011;9477;51.414;10.362;2022-12-18T08:59:27;37.80;;;17.63;;
18693;SDS011;9477;51.414;10.362;2022-12-18T09:01:32;36.30;;;17.03;;
18693;SDS011;9477;51.414;10.362;2022-12-18T09:03:35;37.77;;;17.57;;
18693;SDS011;9477;51.414;10.362;2022-12-18T09:05:39;33.93;;;16.23;;
18693;SDS011;9477;51.414;10.362;2022-12-18T09:07:43;32.67;;;15.83;;
18693;SDS011;9477;51.414;10.362;2022-12-18T09:09:46;31.47;;;16.70;;
18693;SDS011;9477;51.414;10.362;2022-12-18T09:11:49;33.10;;;17.03;;
18693;SDS011;9477;51.414;10.362;2022-12-18T09:13:52;36.03;;;17.30;;
18693;SDS011;9477;51.414;10.362;2022-12-18T09:15:56;34.50;;;17.67;;
18693;SDS011;9477;51.414;10.362;2022-12-18T09:18:00;36.93;;;18.10;;
18693;SDS011;9477;51.414;10.362;2022-12-18T09:20:03;37.67;;;17.10;;
18693;SDS011;9477;51.414;10.362;2022-12-18T09:22:07;37.53;;;18.10;;
18693;SDS011;9477;51.414;10.362;2022-12-18T09:24:11;41.67;;;20.07;;
18693;SDS011;9477;51.414;10.362;2022-12-18T09:26:15;46.40;;;21.53;;
18693;SDS011;9477;51.414;10.362;2022-12-18T09:28:18;49.23;;;22.17;;
18693;SDS011;9477;51.414;10.362;2022-12-18T09:30:21;47.33;;;22.73;;
18693;SDS011;9477;51.414;10.362;2022-12-18T09:32:24;47.27;;;23.37;;
18693;SDS011;9477;51.414;10.362;2022-12-18T09:34:28;47.50;;;23.60;;
18693;SDS011;9477;51.414;10.362;2022-12-18T09:36:31;55.37;;;24.63;;
18693;SDS011;9477;51.414;10.362;2022-12-18T09:38:35;48.57;;;25.00;;
18693;SDS011;9477;51.414;10.362;2022-12-18T09:40:40;55.03;;;25.97;;
18693;SDS011;9477;51.414;10.362;2022-12-18T09:42:48;52.77;;;24.63;;
18693;SDS011;9477;51.414;10.362;2022-12-18T09:44:56;48.43;;;24.20;;
18693;SDS011;9477;51.414;10.362;2022-12-18T09:47:08;49.13;;;23.43;;
18693;SDS011;9477;51.414;10.362;2022-12-18T09:49:15;53.37;;;23.50;;
18693;SDS011;9477;51.414;10.362;2022-12-18T09:51:23;41.73;;;20.93;;
18693;SDS011;9477;51.414;10.362;2022-12-18T09:53:32;45.80;;;20.83;;
18693;SDS011;9477;51.414;10.362;2022-12-18T09:55:39;45.63;;;20.07;;
18693;SDS011;9477;51.414;10.362;2022-12-18T09:57:47;41.57;;;19.30;;
18693;SDS011;9477;51.414;10.362;2022-12-18T09:59:54;42.57;;;19.73;;
18693;SDS011;9477;51.414;10.362;2022-12-18T10:02:02;42.07;;;20.47;;
18693;SDS011;9477;51.414;10.362;2022-12-18T10:04:16;37.43;;;20.90;;
18693;SDS011;9477;51.414;10.362;2022-12-18T10:06:20;40.57;;;19.83;;
18693;SDS011;9477;51.414;10.362;2022-12-18T10:08:33;36.90;;;20.57;;
18693;SDS011;9477;51.414;10.362;2022-12-18T10:10:46;42.57;;;20.37;;
18693;SDS011;9477;51.414;10.362;2022-12-18T10:12:52;38.27;;;18.63;;
18693;SDS011;9477;51.414;10.362;2022-12-18T10:15:06;34.20;;;18.00;;
18693;SDS011;9477;51.414;10.362;2022-12-18T10:17:17;31.50;;;17.57;;
18693;SDS011;9477;51.414;10.362;2022-12-18T10:19:33;33.20;;;17.80;;
18693;SDS011;9477;51.414;10.362;2022-12-18T10:21:44;33.63;;;17.80;;
18693;SDS011;9477;51.414;10.362;2022-12-18T10:23:54;34.57;;;19.30;;
18693;SDS011;9477;51.414;10.362;2022-12-18T10:26:07;34.10;;;17.43;;
18693;SDS011;9477;51.414;10.362;2022-12-18T10:28:14;34.50;;;17.77;;
18693;SDS011;9477;51.414;10.362;2022-12-18T10:30:18;34.10;;;17.73;;
18693;SDS011;9477;51.414;10.362;2022-12-18T10:32:23;30.93;;;16.97;;
18693;SDS011;9477;51.414;10.362;2022-12-18T10:34:28;38.00;;;20.13;;
18693;SDS011;9477;51.414;10.362;2022-12-18T10:36:31;36.40;;;18.97;;
18693;SDS011;9477;51.414;10.362;2022-12-18T10:38:35;36.60;;;18.37;;
18693;SDS011;9477;51.414;10.362;2022-12-18T10:40:47;35.67;;;19.33;;
18693;SDS011;9477;51.414;10.362;2022-12-18T10:43:02;35.53;;;19.30;;
18693;SDS011;9477;51.414;10.362;2022-12-18T10:45:08;36.27;;;18.43;;
18693;SDS011;9477;51.414;10.362;2022-12-18T10:47:14;32.80;;;18.63;;
18693;SDS011;9477;51.414;10.362;2022-12-18T10:49:22;31.63;;;17.70;;
18693;SDS011;9477;51.414;10.362;2022-12-18T10:51:31;36.27;;;18.17;;
18693;SDS011;9477;51.414;10.362;2022-12-18T10:53:36;37.67;;;18.10;;
18693;SDS011;9477;51.414;10.362;2022-12-18T10:55:44;36.40;;;17.57;;
18693;SDS011;9477;51.414;10.362;2022-12-18T10:57:48;36.50;;;19.23;;
18693;SDS011;9477;51.414;10.362;2022-12-18T10:59:52;36.00;;;17.50;;
18693;SDS011;9477;51.414;10.362;2022-12-18T11:01:56;38.17;;;18.27;;
18693;SDS011;9477;51.414;10.362;2022-12-18T11:04:01;35.60;;;18.27;;
18693;SDS011;9477;51.414;10.362;2022-12-18T11:06:10;32.93;;;18.57;;
18693;SDS011;9477;51.414;10.362;2022-12-18T11:08:19;38.27;;;18.77;;
18693;SDS011;9477;51.414;10.362;2022-12-18T11:10:28;36.70;;;19.07;;
18693;SDS011;9477;51.414;10.362;2022-12-18T11:12:33;32.27;;;18.03;;
18693;SDS011;9477;51.414;10.362;2022-12-18T11:14:41;33.07;;;18.03;;
18693;SDS011;9477;51.414;10.362;2022-12-18T11:16:47;32.33;;;18.33;;
18693;SDS011;9477;51.414;10.362;2022-12-18T11:19:14;32.80;;;18.03;;
18693;SDS011;9477;51.414;10.362;2022-12-18T11:21:25;34.00;;;18.00;;
18693;SDS011;9477;51.414;10.362;2022-12-18T11:23:28;33.00;;;18.33;;
18693;SDS011;9477;51.414;10.362;2022-12-18T11:25:33;34.73;;;18.50;;
18693;SDS011;9477;51.414;10.362;2022-12-18T11:27:36;30.20;;;17.77;;
18693;SDS011;9477;51.414;10.362;2022-12-18T11:29:40;31.83;;;18.17;;
18693;SDS011;9477;51.414;10.362;2022-12-18T11:31:47;32.77;;;18.23;;
18693;SDS011;9477;51.414;10.362;2022-12-18T11:33:52;35.93;;;18.83;;
18693;SDS011;9477;51.414;10.362;2022-12-18T11:36:20;30.70;;;17.33;;
18693;SDS011;9477;51.414;10.362;2022-12-18T11:38:24;32.30;;;17.67;;
18693;SDS011;9477;51.414;10.362;2022-12-18T11:40:33;31.97;;;17.80;;
18693;SDS011;9477;51.414;10.362;2022-12-18T11:42:44;32.83;;;17.93;;
18693;SDS011;9477;51.414;10.362;2022-12-18T11:44:51;32.60;;;18.73;;
18693;SDS011;9477;51.414;10.362;2022-12-18T11:46:59;34.13;;;17.37;;
18693;SDS011;9477;51.414;10.362;2022-12-18T11:49:06;27.57;;;17.60;;
18693;SDS011;9477;51.414;10.362;2022-12-18T11:51:16;27.97;;;16.20;;
18693;SDS011;9477;51.414;10.362;2022-12-18T11:53:27;28.53;;;17.93;;
18693;SDS011;9477;51.414;10.362;2022-12-18T11:55:37;28.90;;;16.70;;
18693;SDS011;9477;51.414;10.362;2022-12-18T11:57:48;28.43;;;16.20;;
18693;SDS011;9477;51.414;10.362;2022-12-18T11:59:59;31.93;;;17.50;;
18693;SDS011;9477;51.414;10.362;2022-12-18T12:02:11;29.60;;;17.03;;
18693;SDS011;9477;51.414;10.362;2022-12-18T12:04:31;29.80;;;17.80;;
18693;SDS011;9477;51.414;10.362;2022-12-18T12:06:47;34.73;;;18.83;;
18693;SDS011;9477;51.414;10.362;2022-12-18T12:09:04;30.83;;;17.37;;
18693;SDS011;9477;51.414;10.362;2022-12-18T12:11:19;35.97;;;21.60;;
18693;SDS011;9477;51.414;10.362;2022-12-18T12:13:36;33.97;;;20.30;;
18693;SDS011;9477;51.414;10.362;2022-12-18T12:15:48;34.90;;;19.47;;
18693;SDS011;9477;51.414;10.362;2022-12-18T12:18:06;28.67;;;15.97;;
18693;SDS011;9477;51.414;10.362;2022-12-18T12:20:16;25.30;;;15.70;;
18693;SDS011;9477;51.414;10.362;2022-12-18T12:22:25;24.87;;;14.87;;
18693;SDS011;9477;51.414;10.362;2022-12-18T12:24:37;32.83;;;15.73;;